createdAt,value
2022-11-16T00:00:05.618Z,1.1
2022-11-16T00:05:00.422Z,1.1
2022-11-16T00:10:00.430Z,1.1
2022-11-16T00:15:00.431Z,1.1
2022-11-16T00:20:00.453Z,1.1
2022-11-16T00:25:00.443Z,1.1
2022-11-16T00:30:00.448Z,1.1
2022-11-16T00:35:00.420Z,1.1
2022-11-16T00:40:00.299Z,1.1
2022-11-16T00:45:00.138Z,1.1
2022-11-16T00:50:00.123Z,1.1
2022-11-16T00:55:00.194Z,1.1
2022-11-16T01:00:00.178Z,1.1
2022-11-16T01:05:00.229Z,1.1
2022-11-16T01:10:00.179Z,1.1
2022-11-16T01:15:00.183Z,1.1
2022-11-16T01:20:00.131Z,1.1
2022-11-16T01:25:00.143Z,1.1
2022-11-16T01:30:00.163Z,1.1
2022-11-16T01:35:00.145Z,1.1
2022-11-16T01:40:00.220Z,1.1
2022-11-16T01:45:00.153Z,1.1
2022-11-16T01:50:00.165Z,1.1
2022-11-16T01:55:00.160Z,1.1
2022-11-16T02:00:00.203Z,1.1
2022-11-16T02:05:00.179Z,1.1
2022-11-16T02:10:00.187Z,1.1
2022-11-16T02:15:00.186Z,1.1
2022-11-16T02:20:00.192Z,1.1
2022-11-16T02:25:00.193Z,1.1
2022-11-16T02:30:00.208Z,1.1
2022-11-16T02:35:00.218Z,1.1
2022-11-16T02:40:00.209Z,1.1
2022-11-16T02:45:00.210Z,1.1
2022-11-16T02:50:00.218Z,1.1
2022-11-16T02:55:00.219Z,1.1
2022-11-16T03:00:00.238Z,1.1
2022-11-16T03:05:01.104Z,1.1
2022-11-16T03:10:01.117Z,1.1
2022-11-16T03:15:01.108Z,1.1
2022-11-16T03:20:01.114Z,1.1
2022-11-16T03:25:01.114Z,1.1
2022-11-16T03:30:01.118Z,1.1
2022-11-16T03:35:01.121Z,1.1
2022-11-16T03:40:01.147Z,1.1
2022-11-16T03:45:01.137Z,1.1
2022-11-16T03:50:01.142Z,1.1
2022-11-16T03:55:01.150Z,1.1
2022-11-16T04:00:01.146Z,1.1
2022-11-16T04:05:01.157Z,1.1
2022-11-16T04:10:01.161Z,1.1
2022-11-16T04:15:01.168Z,1.1
2022-11-16T04:20:01.170Z,1.1
2022-11-16T04:25:01.177Z,1.1
2022-11-16T04:30:01.185Z,1.1
2022-11-16T04:35:01.190Z,1.1
2022-11-16T04:40:01.194Z,1.1
2022-11-16T04:45:01.192Z,1.1
2022-11-16T04:50:01.208Z,1.1
2022-11-16T04:55:01.211Z,1.1
2022-11-16T05:00:01.229Z,1.1
2022-11-16T05:05:01.230Z,1.1
2022-11-16T05:10:01.230Z,1.1
2022-11-16T05:15:01.229Z,1.1
2022-11-16T05:20:01.237Z,1.1
2022-11-16T05:25:01.262Z,1.1
2022-11-16T05:30:01.250Z,1.1
2022-11-16T05:35:01.264Z,1.1
2022-11-16T05:40:01.268Z,1.1
2022-11-16T05:45:01.283Z,1.1
2022-11-16T05:50:01.293Z,1.1
2022-11-16T05:55:02.192Z,1.1
2022-11-16T06:00:01.287Z,1.1
2022-11-16T06:05:01.301Z,1.1
2022-11-16T06:10:01.307Z,1.7
2022-11-16T06:15:01.319Z,4.1
2022-11-16T06:20:01.317Z,8.9
2022-11-16T06:25:01.321Z,19.9
2022-11-16T06:30:01.304Z,36.6
2022-11-16T06:35:01.310Z,56.9
2022-11-16T06:40:00.146Z,99.9
2022-11-16T06:45:00.154Z,157.4
2022-11-16T06:50:00.162Z,209.7
2022-11-16T06:55:00.173Z,202.3
2022-11-16T07:00:00.196Z,219.9
2022-11-16T07:05:03.517Z,289.6
2022-11-16T07:10:00.181Z,445.4
2022-11-16T07:15:00.198Z,637.6
2022-11-16T07:20:00.199Z,701.6
2022-11-16T07:25:00.196Z,923.7
2022-11-16T07:30:00.205Z,957.5
2022-11-16T07:35:00.209Z,912.8
2022-11-16T07:40:00.229Z,1079.1
2022-11-16T07:45:00.228Z,1173.3
2022-11-16T07:50:00.237Z,1306.7
2022-11-16T07:55:00.225Z,957.5
2022-11-16T08:00:00.236Z,849.6
2022-11-16T08:05:00.259Z,912.8
2022-11-16T08:10:00.295Z,1028.7
2022-11-16T08:15:00.249Z,934.9
2022-11-16T08:20:00.261Z,829.5
2022-11-16T08:25:00.276Z,1582.3
2022-11-16T08:30:00.265Z,1016.5
2022-11-16T08:35:00.272Z,1601.3
2022-11-16T08:40:00.281Z,1699.9
2022-11-16T08:45:00.294Z,1472.7
2022-11-16T08:50:00.287Z,1679.7
2022-11-16T08:55:00.285Z,1915.9
2022-11-16T09:00:00.298Z,2742.6
2022-11-16T09:05:00.318Z,3018
2022-11-16T09:10:00.330Z,2911.7
2022-11-16T09:15:00.307Z,2058.4
2022-11-16T09:20:00.317Z,1962.2
2022-11-16T09:25:00.319Z,1620.5
2022-11-16T09:30:00.845Z,2211.5
2022-11-16T09:35:00.341Z,2404.6
2022-11-16T09:40:00.350Z,3018
2022-11-16T09:45:00.371Z,2522.4
2022-11-16T09:50:03.920Z,2211.5
2022-11-16T09:55:00.880Z,1620.5
2022-11-16T10:00:00.356Z,1848.4
2022-11-16T10:05:00.357Z,2347.8
2022-11-16T10:10:00.378Z,1962.2
2022-11-16T10:15:00.377Z,2376
2022-11-16T10:20:00.376Z,1893.1
2022-11-16T10:25:00.389Z,1893.1
2022-11-16T10:30:00.400Z,2583.5
2022-11-16T10:35:00.398Z,3833.5
2022-11-16T10:40:00.404Z,4269.1
2022-11-16T10:45:00.404Z,1962.2
2022-11-16T10:50:00.409Z,3654.5
2022-11-16T10:55:00.419Z,2742.6
2022-11-16T11:00:00.778Z,2265.1
2022-11-16T11:05:01.098Z,1659.7
2022-11-16T11:10:00.508Z,2433.5
2022-11-16T11:15:00.488Z,2376
2022-11-16T11:20:00.508Z,2376
2022-11-16T11:25:00.537Z,1938.9
2022-11-16T11:30:00.810Z,2347.8
2022-11-16T11:35:00.495Z,2433.5
2022-11-16T11:40:00.461Z,2710.1
2022-11-16T11:45:00.470Z,2058.4
2022-11-16T11:50:00.487Z,3698.5
2022-11-16T11:55:00.486Z,4168.3
2022-11-16T12:00:00.481Z,3483.7
2022-11-16T12:05:00.483Z,4425
2022-11-16T12:10:00.489Z,4425
2022-11-16T12:15:00.533Z,2742.6
2022-11-16T12:20:00.523Z,4320.5
2022-11-16T12:25:00.504Z,4168.3
2022-11-16T12:30:00.721Z,2982.2
2022-11-16T12:35:00.510Z,3321.1
2022-11-16T12:40:00.396Z,1508.3
2022-11-16T12:45:00.242Z,1322.4
2022-11-16T12:50:00.139Z,2492.4
2022-11-16T12:55:24.769Z,2677.9
2022-11-16T13:00:00.148Z,2433.5
2022-11-16T13:05:00.120Z,1826.4
2022-11-16T13:10:00.139Z,2462.8
2022-11-16T13:15:00.141Z,2376
2022-11-16T13:20:00.126Z,1455.2
2022-11-16T13:25:00.577Z,2058.4
2022-11-16T13:30:00.671Z,2185.2
2022-11-16T13:35:00.138Z,2009.8
2022-11-16T13:40:00.186Z,2159.2
2022-11-16T13:45:00.150Z,2614.6
2022-11-16T13:50:00.185Z,1962.2
2022-11-16T13:55:00.168Z,3611.1
2022-11-16T14:00:00.168Z,1508.3
2022-11-16T14:05:00.176Z,1659.7
2022-11-16T14:10:00.182Z,1563.4
2022-11-16T14:15:03.558Z,1679.7
2022-11-16T14:20:00.193Z,1659.7
2022-11-16T14:25:00.187Z,1370.7
2022-11-16T14:30:00.210Z,1004.4
2022-11-16T14:35:00.201Z,969
2022-11-16T14:40:00.220Z,1028.7
2022-11-16T14:45:00.213Z,912.8
2022-11-16T14:50:00.215Z,1187.5
2022-11-16T14:55:00.216Z,1216.2
2022-11-16T15:00:00.225Z,957.5
2022-11-16T15:05:00.234Z,790.8
2022-11-16T15:10:00.258Z,668.8
2022-11-16T15:15:00.262Z,414.5
2022-11-16T15:20:00.262Z,367.8
2022-11-16T15:25:00.277Z,266.3
2022-11-16T15:30:00.801Z,214.8
2022-11-16T15:35:05.150Z,167.1
2022-11-16T15:40:00.375Z,139.6
2022-11-16T15:45:00.374Z,103.5
2022-11-16T15:50:00.418Z,67.3
2022-11-16T15:55:00.357Z,37.9
2022-11-16T16:00:00.340Z,21.4
2022-11-16T16:05:00.329Z,11.1
2022-11-16T16:10:00.327Z,4.7
2022-11-16T16:15:00.346Z,1.6
2022-11-16T16:20:00.369Z,1.1
2022-11-16T16:25:00.347Z,1.1
2022-11-16T16:30:00.375Z,1.1
2022-11-16T16:35:00.367Z,1.1
2022-11-16T16:40:00.446Z,1.1
2022-11-16T16:45:00.401Z,1.1
2022-11-16T16:50:00.378Z,1.1
2022-11-16T16:55:00.389Z,1.1
2022-11-16T17:00:00.917Z,1.1
2022-11-16T17:05:00.912Z,1.1
2022-11-16T17:10:00.473Z,1.1
2022-11-16T17:15:00.367Z,1.1
2022-11-16T17:20:00.404Z,1.1
2022-11-16T17:25:00.388Z,1.1
2022-11-16T17:30:00.912Z,1.1
2022-11-16T17:35:00.385Z,1.1
2022-11-16T17:40:00.387Z,1.1
2022-11-16T17:45:00.412Z,1.1
2022-11-16T17:50:00.413Z,1.1
2022-11-16T17:55:00.411Z,1.1
2022-11-16T18:00:00.416Z,1.1
2022-11-16T18:05:00.432Z,1.1
2022-11-16T18:10:00.442Z,1.1
2022-11-16T18:15:27.074Z,1.1
2022-11-16T18:20:00.437Z,1.1
2022-11-16T18:25:00.434Z,1.1
2022-11-16T18:30:00.444Z,1.1
2022-11-16T18:35:00.459Z,1.1
2022-11-16T18:40:00.332Z,1.1
2022-11-16T18:45:00.195Z,1.1
2022-11-16T18:50:00.129Z,1.1
2022-11-16T18:55:00.238Z,1.1
2022-11-16T19:00:00.123Z,1.1
2022-11-16T19:05:00.168Z,1.1
2022-11-16T19:10:00.171Z,1.1
2022-11-16T19:15:00.127Z,1.1
2022-11-16T19:20:00.126Z,1.1
2022-11-16T19:25:04.615Z,1.1
2022-11-16T19:30:00.147Z,1.1
2022-11-16T19:35:00.151Z,1.1
2022-11-16T19:40:00.160Z,1.1
2022-11-16T19:45:00.153Z,1.1
2022-11-16T19:50:00.176Z,1.1
2022-11-16T19:55:00.165Z,1.1
2022-11-16T20:00:00.175Z,1.1
2022-11-16T20:05:00.173Z,1.1
2022-11-16T20:10:00.179Z,1.1
2022-11-16T20:15:00.181Z,1.1
2022-11-16T20:20:00.192Z,1.1
2022-11-16T20:25:00.272Z,1.1
2022-11-16T20:30:03.703Z,1.1
2022-11-16T20:35:00.264Z,1.1
2022-11-16T20:40:00.220Z,1.1
2022-11-16T20:45:00.221Z,1.1
2022-11-16T20:50:00.258Z,1.1
2022-11-16T20:55:00.242Z,1.1
2022-11-16T21:00:00.238Z,1.1
2022-11-16T21:05:00.660Z,1.1
2022-11-16T21:10:00.238Z,1.1
2022-11-16T21:15:00.247Z,1.1
2022-11-16T21:20:25.918Z,1.1
2022-11-16T21:25:00.264Z,1.1
2022-11-16T21:30:00.261Z,1.1
2022-11-16T21:35:00.262Z,1.1
2022-11-16T21:40:00.274Z,1.1
2022-11-16T21:45:00.275Z,1.1
2022-11-16T21:50:30.035Z,1.1
2022-11-16T21:55:00.339Z,1.1
2022-11-16T22:00:00.303Z,1.1
2022-11-16T22:10:00.318Z,1.1
2022-11-16T22:15:00.304Z,1.1
2022-11-16T22:20:00.326Z,1.1
2022-11-16T22:25:00.316Z,1.1
2022-11-16T22:30:00.350Z,1.1
2022-11-16T22:35:00.355Z,1.1
2022-11-16T22:40:00.382Z,1.1
2022-11-16T22:45:00.384Z,1.1
2022-11-16T22:50:00.372Z,1.1
2022-11-16T22:55:00.380Z,1.1
2022-11-16T23:00:00.399Z,1.1
2022-11-16T23:05:00.431Z,1.1
2022-11-16T23:10:00.470Z,1.1
2022-11-16T23:15:00.469Z,1.1
2022-11-16T23:20:00.464Z,1.1
2022-11-16T23:25:00.460Z,1.1
2022-11-16T23:30:00.500Z,1.1
2022-11-16T23:35:00.446Z,1.1
2022-11-16T23:40:00.447Z,1.1
2022-11-16T23:45:00.393Z,1.1
2022-11-16T23:50:00.416Z,1.1
2022-11-16T23:55:00.409Z,1.1
